Martedì 23 Luglio 2024 Home 
Uddevalla - MX1 gara 1 [04-07-10 17:49 by staff GoNBike.com] 

MX1 - Grand Prix Race 1 - Classification

Pos Nr Rider Nat. Fed. Bike Time laps Diff. First Diff. Prev. Bestlaptime in lap Speed

1 222 Cairoli, Antonio ITA FMI KTM 39:45.425 21 0:00.000 0:00.000 1:46.730 4 50.932
2 25 Desalle, Clement BEL FMB Suzuki 39:49.465 21 0:04.040 0:04.040 1:46.998 3 50.805
3 19 Philippaerts, David ITA FMI Yamaha 39:51.476 21 0:06.051 0:02.011 1:47.186 6 50.716
4 11 Ramon, Steve BEL FMB Suzuki 39:53.341 21 0:07.916 0:01.865 1:46.893 7 50.855
5 777 Bobryshev, Evgeny RUS MFR Honda 40:15.967 21 0:30.542 0:22.626 1:48.159 21 50.259
6 2 Nagl, Maximilian GER DMSB KTM 40:18.233 21 0:32.808 0:02.266 1:48.241 10 50.221
7 8 Swanepoel, Gareth RSA ACU Honda 40:46.001 21 1:00.576 0:27.768 1:49.116 17 49.819
8 4 Strijbos, Kevin BEL FMB Suzuki 40:47.216 21 1:01.791 0:01.215 1:48.326 21 50.182
9 121 Boog, Xavier FRA FFM Kawasaki 40:48.440 21 1:03.015 0:01.224 1:46.613 20 50.988
10 10 Boissiere, Anthony FRA FFM TM 41:03.058 21 1:17.633 0:14.618 1:50.273 4 49.296
11 6 Coppins, Joshua NZL MNZ Aprilia 41:14.512 21 1:29.087 0:11.454 1:49.736 18 49.537
12 22 Goncalves, Rui POR FMP KTM 41:19.286 21 1:33.861 0:04.774 1:50.993 17 48.976
13 17 Söderström, Tom SWE SVEMO Yamaha 41:23.614 21 1:38.189 0:04.328 1:51.490 19 48.758
14 32 Priem, Manuel BEL FMB Aprilia 41:26.249 21 1:40.824 0:02.635 1:50.896 8 49.019
15 49 Schmidinger, Günter AUT OeAMTC Suzuki 41:28.464 21 1:43.039 0:02.215 1:51.107 16 48.926
16 52 Walkner, Matthias AUT OeAMTC KTM 41:31.525 21 1:46.100 0:03.061 1:48.805 21 49.961
17 38 Martens, Yentel BEL MUL KTM 41:35.001 21 1:49.576 0:03.476 1:51.513 16 48.748
18 45 Leonce, Loic FRA FFM Suzuki 39:53.567 20 1 lap 1 lap 1:51.475 8 48.764
19 36 Bonini, Matteo ITA FMI Yamaha 39:58.135 20 1 lap 0:04.568 1:51.138 5 48.912
20 75 Wouts, Kevin BEL FMB Kawasaki 40:00.937 20 1 lap 0:02.802 1:51.756 10 48.642
21 74 Steinbergs, Ivo LAT LAMSF Honda 40:31.939 20 1 lap 0:31.002 1:51.793 6 48.626
22 76 Sandberg, Rickard SWE SVEMO Kawasaki 41:27.601 20 1 lap 0:55.662 1:53.795 8 47.77
23 120 Soubeyras, Cedric FRA FFM KTM 34:21.591 16 5 laps 4 laps 1:52.192 12 48.453
24 128 Johnsson, Tom SWE SVEMO Kawasaki 25:29.586 12 9 laps 4 laps 1:53.466 10 47.909
25 500 Norlen, Marcus SWE SVEMO Honda 19:10.753 9 12 laps 3 laps 1:52.060 9 48.51
26 39 Guarneri, Davide ITA FMI Honda 19:50.414 9 12 laps 0:39.661 1:46.306 2 51.135
27 702 Albertson, Jimmy USA AMA Honda 11:47.429 5 16 laps 4 laps 1:51.337 5 48.825
28 331 Aubin, Nicolas FRA FFM Kawasaki 12:41.688 5 16 laps 0:54.259 1:52.127 2 48.481




Visualizza tutte le newsArchivio Cerca un termine nelle newsCerca Leggi le news più recentiPiù recenti   Versione stampabileStampa 
Notizia precedente
Uddevalla - MX2 classifica GP
Notizia successiva
Uddevalla - MX1 gara 2